Time;durP1;ratioP1;P1;durP2;ratioP2;P2;SDS_P1;SDS_P2;PMS_P1;PMS_P2;Temp;Humidity;BMP_temperature;BMP_pressure;BME280_temperature;BME280_humidity;BME280_pressure;Samples;Min_cycle;Max_cycle;Signal;HPM_P1;HPM_P2
2023/12/25 00:02:09;;;;;;;0.43;0.15;;;13.70;99.90;;;;;;5075543;28;20032;-69
2023/12/25 00:04:38;;;;;;;0.20;0.10;;;13.70;99.90;;;;;;5076117;28;20024;-70
2023/12/25 00:07:07;;;;;;;1.55;0.20;;;13.70;99.90;;;;;;5076084;28;20028;-69
2023/12/25 00:09:33;;;;;;;0.20;0.10;;;13.70;99.90;;;;;;5075641;28;20103;-69
2023/12/25 00:11:59;;;;;;;2.28;0.25;;;13.70;99.90;;;;;;5075600;28;20098;-71
2023/12/25 00:14:26;;;;;;;0.00;0.00;;;13.70;99.90;;;;;;5075449;28;20416;-70
2023/12/25 00:16:51;;;;;;;0.10;0.10;;;13.70;99.90;;;;;;5057608;28;20037;-69
2023/12/25 00:19:17;;;;;;;0.43;0.25;;;13.70;99.90;;;;;;5052033;28;20017;-69
2023/12/25 00:21:43;;;;;;;0.20;0.20;;;13.70;99.90;;;;;;5076334;28;20461;-69
2023/12/25 00:24:09;;;;;;;0.00;0.00;;;13.70;99.90;;;;;;5074444;28;20032;-70
2023/12/25 00:26:35;;;;;;;0.10;0.10;;;13.80;99.90;;;;;;5075606;28;20024;-69
2023/12/25 00:29:03;;;;;;;0.25;0.20;;;13.70;99.90;;;;;;5061914;28;20458;-68
2023/12/25 00:31:29;;;;;;;1.45;0.40;;;13.70;99.90;;;;;;5073058;28;20063;-69
2023/12/25 00:33:55;;;;;;;0.10;0.10;;;13.80;99.90;;;;;;5075454;28;20039;-68
2023/12/25 00:36:20;;;;;;;0.85;0.85;;;13.80;99.90;;;;;;5075395;28;20074;-69
2023/12/25 00:38:46;;;;;;;6.93;0.45;;;13.80;99.90;;;;;;5074182;28;20041;-68
2023/12/25 00:41:12;;;;;;;0.10;0.10;;;13.70;99.90;;;;;;5075076;28;20032;-70
2023/12/25 00:43:38;;;;;;;0.10;0.10;;;13.70;99.90;;;;;;5074697;28;20021;-69
2023/12/25 00:46:05;;;;;;;1.23;0.77;;;13.70;99.90;;;;;;5063743;28;20037;-70
2023/12/25 00:48:31;;;;;;;0.10;0.10;;;13.80;99.90;;;;;;5071635;28;20147;-70
2023/12/25 00:50:57;;;;;;;1.02;0.47;;;13.80;99.90;;;;;;5074089;28;20029;-69
2023/12/25 00:53:23;;;;;;;0.00;0.00;;;13.70;99.90;;;;;;5060862;28;20043;-70
2023/12/25 00:55:49;;;;;;;0.25;0.25;;;13.70;99.90;;;;;;5059662;28;20025;-70
2023/12/25 00:58:15;;;;;;;1.75;0.47;;;13.70;99.90;;;;;;5073542;28;20035;-72
2023/12/25 01:00:41;;;;;;;4.28;0.57;;;13.70;99.90;;;;;;5070964;28;20443;-70
2023/12/25 01:03:06;;;;;;;0.50;0.28;;;13.70;99.90;;;;;;5049754;28;20028;-69
2023/12/25 01:05:32;;;;;;;0.65;0.30;;;13.70;99.90;;;;;;5074814;28;20071;-70
2023/12/25 01:07:58;;;;;;;4.07;0.40;;;13.80;99.90;;;;;;5075069;28;20024;-69
2023/12/25 01:10:24;;;;;;;1.58;0.45;;;13.80;99.90;;;;;;5073363;28;20036;-70
2023/12/25 01:12:50;;;;;;;7.30;1.08;;;13.80;99.90;;;;;;5073379;28;20032;-69
2023/12/25 01:15:15;;;;;;;0.13;0.13;;;13.70;99.90;;;;;;5073438;28;20020;-69
2023/12/25 01:17:41;;;;;;;0.52;0.32;;;13.70;99.90;;;;;;5073122;28;20024;-70
2023/12/25 01:20:08;;;;;;;0.30;0.30;;;13.80;99.90;;;;;;5073305;28;20016;-69
2023/12/25 01:22:34;;;;;;;0.22;0.22;;;13.80;99.90;;;;;;5046088;28;20032;-70
2023/12/25 01:25:00;;;;;;;0.22;0.22;;;13.80;99.90;;;;;;5060673;28;20028;-73
2023/12/25 01:27:26;;;;;;;1.23;0.60;;;13.80;99.90;;;;;;5074549;28;20385;-70
2023/12/25 01:29:52;;;;;;;0.98;0.93;;;13.70;99.90;;;;;;5046092;28;20012;-68
2023/12/25 01:32:18;;;;;;;1.95;0.85;;;13.80;99.90;;;;;;5074299;28;20544;-70
2023/12/25 01:34:44;;;;;;;1.23;0.85;;;13.70;99.90;;;;;;5072893;28;20028;-70
2023/12/25 01:37:09;;;;;;;0.50;0.50;;;13.70;99.90;;;;;;5073183;28;20473;-70
2023/12/25 01:39:36;;;;;;;4.80;0.30;;;13.80;99.90;;;;;;5074012;28;20393;-68
2023/12/25 01:42:03;;;;;;;0.25;0.25;;;13.80;99.90;;;;;;5059874;28;20048;-70
2023/12/25 01:44:28;;;;;;;1.25;0.75;;;13.90;99.90;;;;;;5041559;28;20473;-70
2023/12/25 01:46:55;;;;;;;0.98;0.75;;;13.80;99.90;;;;;;5072840;28;20024;-69
2023/12/25 01:49:23;;;;;;;5.57;0.40;;;13.80;99.90;;;;;;5074104;28;20024;-69
2023/12/25 01:51:50;;;;;;;0.15;0.15;;;13.80;99.90;;;;;;5072613;28;20041;-71
2023/12/25 01:54:16;;;;;;;0.65;0.40;;;13.80;99.90;;;;;;5068764;28;20024;-70
2023/12/25 01:56:42;;;;;;;0.40;0.40;;;13.80;99.90;;;;;;5064882;28;20055;-70
2023/12/25 01:59:09;;;;;;;0.15;0.15;;;13.80;99.90;;;;;;5068977;28;20381;-70
2023/12/25 02:01:36;;;;;;;0.40;0.40;;;13.90;99.90;;;;;;5061807;28;20033;-69
2023/12/25 02:04:02;;;;;;;0.20;0.20;;;13.90;99.90;;;;;;5044203;28;20079;-71
2023/12/25 02:06:28;;;;;;;0.20;0.20;;;13.80;99.90;;;;;;5043386;28;20033;-69
2023/12/25 02:08:55;;;;;;;0.60;0.60;;;13.80;99.90;;;;;;5073709;28;20150;-70
2023/12/25 02:11:21;;;;;;;0.20;0.20;;;13.80;99.90;;;;;;5071853;28;20049;-70
2023/12/25 02:13:47;;;;;;;0.40;0.20;;;13.80;99.90;;;;;;5073636;28;20021;-70
2023/12/25 02:16:13;;;;;;;0.13;0.13;;;13.90;99.90;;;;;;5072025;28;20115;-69
2023/12/25 02:18:41;;;;;;;0.25;0.25;;;13.80;99.90;;;;;;5073747;28;20326;-70
2023/12/25 02:21:06;;;;;;;0.35;0.35;;;13.80;99.90;;;;;;5073232;28;20488;-70
2023/12/25 02:23:37;;;;;;;0.10;0.10;;;13.80;99.90;;;;;;5073297;28;20036;-70
2023/12/25 02:26:05;;;;;;;0.10;0.10;;;13.80;99.90;;;;;;5071674;28;20024;-68
2023/12/25 02:28:31;;;;;;;0.77;0.40;;;13.80;99.90;;;;;;5057909;28;20025;-69
2023/12/25 02:30:58;;;;;;;1.88;0.20;;;13.70;99.90;;;;;;5059792;28;20103;-69
2023/12/25 02:33:24;;;;;;;2.83;0.35;;;13.70;99.90;;;;;;5073080;28;20465;-69
2023/12/25 02:35:50;;;;;;;0.85;0.10;;;13.70;99.90;;;;;;5073117;28;20021;-70
2023/12/25 02:38:16;;;;;;;1.17;0.15;;;13.70;99.90;;;;;;5071839;28;20073;-69
2023/12/25 02:40:42;;;;;;;1.42;0.50;;;13.70;99.90;;;;;;5072880;28;20071;-70
2023/12/25 02:43:09;;;;;;;0.28;0.28;;;13.70;99.90;;;;;;5071892;28;20063;-70
2023/12/25 02:45:35;;;;;;;0.35;0.32;;;13.70;99.90;;;;;;5064097;28;20536;-69
2023/12/25 02:48:01;;;;;;;1.38;0.20;;;13.70;99.90;;;;;;5066070;28;20025;-69
2023/12/25 02:50:27;;;;;;;1.02;1.00;;;13.70;99.90;;;;;;5067251;28;20043;-70
2023/12/25 02:52:53;;;;;;;0.10;0.10;;;13.60;99.90;;;;;;5064570;28;20085;-70
2023/12/25 02:55:19;;;;;;;0.13;0.13;;;13.60;99.90;;;;;;5057539;28;20056;-70
2023/12/25 02:57:45;;;;;;;0.20;0.20;;;13.60;99.90;;;;;;5071356;28;20022;-70
2023/12/25 03:00:12;;;;;;;0.00;0.00;;;13.60;99.90;;;;;;5073074;28;20082;-70
2023/12/25 03:02:38;;;;;;;0.28;0.28;;;13.70;99.90;;;;;;5071595;28;20020;-70
2023/12/25 03:05:06;;;;;;;0.08;0.08;;;13.60;99.90;;;;;;5072874;28;20024;-69
2023/12/25 03:07:32;;;;;;;0.25;0.20;;;13.50;99.90;;;;;;5052117;28;20029;-70
2023/12/25 03:09:58;;;;;;;0.10;0.10;;;13.60;99.90;;;;;;5039441;28;20064;-70
2023/12/25 03:12:23;;;;;;;0.32;0.20;;;13.70;99.90;;;;;;5052224;28;20110;-70
2023/12/25 03:14:50;;;;;;;0.65;0.10;;;13.60;99.90;;;;;;5051497;28;20047;-70
2023/12/25 03:17:16;;;;;;;0.10;0.10;;;13.50;99.90;;;;;;5052839;28;20035;-70
2023/12/25 03:19:42;;;;;;;4.03;0.17;;;13.60;99.90;;;;;;5051236;28;20025;-70
2023/12/25 03:22:08;;;;;;;0.17;0.17;;;13.50;99.90;;;;;;5052499;28;20029;-71
2023/12/25 03:24:34;;;;;;;1.00;0.35;;;13.50;99.90;;;;;;5051027;28;20036;-70
2023/12/25 03:27:00;;;;;;;1.95;0.30;;;13.50;99.90;;;;;;5052199;28;20060;-68
2023/12/25 03:29:26;;;;;;;0.00;0.00;;;13.50;99.90;;;;;;5051479;28;20567;-69
2023/12/25 03:31:51;;;;;;;0.00;0.00;;;13.50;99.90;;;;;;5052252;28;20068;-71
2023/12/25 03:34:18;;;;;;;0.10;0.10;;;13.50;99.90;;;;;;5052744;28;20017;-69
2023/12/25 03:36:45;;;;;;;0.00;0.00;;;13.60;99.90;;;;;;5050848;28;20021;-71
2023/12/25 03:39:10;;;;;;;0.00;0.00;;;13.60;99.90;;;;;;5051426;28;20124;-70
2023/12/25 03:41:36;;;;;;;0.00;0.00;;;13.60;99.90;;;;;;5052027;28;20044;-70
2023/12/25 03:44:04;;;;;;;0.00;0.00;;;13.60;99.90;;;;;;5051266;28;20112;-70
2023/12/25 03:46:29;;;;;;;0.63;0.35;;;13.50;99.90;;;;;;5052671;28;20071;-69
2023/12/25 03:48:55;;;;;;;0.00;0.00;;;13.60;99.90;;;;;;5052114;28;20066;-71
2023/12/25 03:51:22;;;;;;;0.00;0.00;;;13.50;99.90;;;;;;5051248;28;20041;-71
2023/12/25 03:53:48;;;;;;;0.00;0.00;;;13.70;99.90;;;;;;5052205;28;20029;-70
2023/12/25 03:56:17;;;;;;;0.00;0.00;;;13.60;99.90;;;;;;5052679;28;20041;-71
2023/12/25 03:58:44;;;;;;;0.00;0.00;;;13.50;99.90;;;;;;5052147;28;20036;-71
2023/12/25 04:01:10;;;;;;;0.00;0.00;;;13.60;99.90;;;;;;5051312;28;20087;-70
2023/12/25 04:03:36;;;;;;;7.22;0.35;;;13.60;99.90;;;;;;5052255;28;20065;-70
2023/12/25 04:06:02;;;;;;;0.55;0.05;;;13.60;99.90;;;;;;5054918;28;20067;-71
2023/12/25 04:08:28;;;;;;;0.28;0.10;;;13.60;99.90;;;;;;5054411;28;20115;-71
2023/12/25 04:10:54;;;;;;;0.00;0.00;;;13.60;99.90;;;;;;5054537;28;20467;-69
2023/12/25 04:13:20;;;;;;;0.05;0.05;;;13.60;99.90;;;;;;5054583;28;20373;-70
2023/12/25 04:15:46;;;;;;;0.00;0.00;;;13.60;99.90;;;;;;5055830;28;20037;-70
2023/12/25 04:18:12;;;;;;;0.30;0.25;;;13.60;99.90;;;;;;5055818;28;20090;-69
2023/12/25 04:20:39;;;;;;;1.65;0.52;;;13.60;99.90;;;;;;5054616;28;20041;-71
2023/12/25 04:23:06;;;;;;;0.20;0.20;;;13.70;99.90;;;;;;5054115;28;20041;-70
2023/12/25 04:25:33;;;;;;;0.32;0.25;;;13.70;99.90;;;;;;5038007;28;20086;-70
2023/12/25 04:27:59;;;;;;;0.10;0.10;;;13.70;99.90;;;;;;5054298;28;20095;-69
2023/12/25 04:30:25;;;;;;;5.95;0.38;;;13.70;99.90;;;;;;5054337;28;20028;-69
2023/12/25 04:32:51;;;;;;;0.10;0.10;;;13.70;99.90;;;;;;5054075;28;20028;-69
2023/12/25 04:35:18;;;;;;;1.13;0.38;;;13.70;99.90;;;;;;5055190;28;20104;-69
2023/12/25 04:37:44;;;;;;;0.00;0.00;;;13.70;99.90;;;;;;5054140;28;20124;-70
2023/12/25 04:40:10;;;;;;;0.03;0.00;;;13.70;99.90;;;;;;5054124;28;20025;-70
2023/12/25 04:42:38;;;;;;;0.10;0.10;;;13.70;99.90;;;;;;5053974;28;20378;-71
2023/12/25 04:45:04;;;;;;;0.20;0.20;;;13.70;99.90;;;;;;5037338;28;20120;-69
2023/12/25 04:47:30;;;;;;;0.52;0.00;;;13.70;99.90;;;;;;5055467;28;20502;-70
2023/12/25 04:49:56;;;;;;;0.10;0.10;;;13.80;99.90;;;;;;5053674;28;20020;-69
2023/12/25 04:52:22;;;;;;;0.98;0.43;;;13.70;99.90;;;;;;5053903;28;20033;-70
2023/12/25 04:54:49;;;;;;;0.00;0.00;;;13.80;99.90;;;;;;5053666;28;20036;-69
2023/12/25 04:57:15;;;;;;;0.03;0.03;;;13.80;99.90;;;;;;5053929;28;20032;-70
2023/12/25 04:59:41;;;;;;;0.17;0.15;;;13.70;99.90;;;;;;5055125;28;20025;-69
2023/12/25 05:02:07;;;;;;;0.47;0.47;;;13.80;99.90;;;;;;5055057;28;20021;-70
2023/12/25 05:04:33;;;;;;;0.17;0.17;;;13.80;99.90;;;;;;5053292;28;20123;-69
2023/12/25 05:06:59;;;;;;;0.20;0.20;;;13.80;99.90;;;;;;5054906;28;20025;-71
2023/12/25 05:09:24;;;;;;;0.00;0.00;;;13.90;99.90;;;;;;5053639;28;20029;-70
2023/12/25 05:11:50;;;;;;;0.13;0.13;;;13.80;99.90;;;;;;5054634;28;20378;-70
2023/12/25 05:14:16;;;;;;;0.10;0.10;;;13.80;99.90;;;;;;5053564;28;20021;-70
2023/12/25 05:16:42;;;;;;;0.20;0.20;;;13.80;99.90;;;;;;5054533;28;20025;-69
2023/12/25 05:19:10;;;;;;;0.00;0.00;;;13.80;99.90;;;;;;5053171;28;20799;-69
2023/12/25 05:21:37;;;;;;;0.28;0.28;;;13.80;99.90;;;;;;5053065;28;20035;-69
2023/12/25 05:24:03;;;;;;;0.08;0.08;;;13.90;99.90;;;;;;5053286;28;20037;-69
2023/12/25 05:26:29;;;;;;;1.25;0.30;;;13.80;99.90;;;;;;5054658;28;20025;-70
2023/12/25 05:28:55;;;;;;;0.20;0.20;;;13.80;99.90;;;;;;5054373;28;20466;-70
2023/12/25 05:31:21;;;;;;;0.70;0.28;;;13.80;99.90;;;;;;5054248;28;20029;-70
2023/12/25 05:33:47;;;;;;;0.55;0.32;;;13.90;99.90;;;;;;5054340;28;20104;-69
2023/12/25 05:36:13;;;;;;;0.30;0.30;;;13.90;99.90;;;;;;5054104;28;20064;-70
2023/12/25 05:38:39;;;;;;;0.00;0.00;;;13.90;99.90;;;;;;5054538;28;20063;-69
2023/12/25 05:41:06;;;;;;;0.00;0.00;;;13.90;99.90;;;;;;5054411;28;20039;-69
2023/12/25 05:43:31;;;;;;;0.00;0.00;;;13.90;99.90;;;;;;5052731;28;20079;-70
2023/12/25 05:45:57;;;;;;;0.13;0.13;;;13.90;99.90;;;;;;5054200;28;20025;-70
2023/12/25 05:48:23;;;;;;;0.10;0.10;;;13.90;99.90;;;;;;5053857;28;20036;-70
2023/12/25 05:50:49;;;;;;;0.00;0.00;;;13.90;99.90;;;;;;5053999;28;20040;-69
2023/12/25 05:53:16;;;;;;;0.05;0.05;;;13.90;99.90;;;;;;5053991;28;20021;-70
2023/12/25 05:55:42;;;;;;;2.08;0.68;;;13.90;99.90;;;;;;5053815;28;20048;-70
2023/12/25 05:58:08;;;;;;;0.10;0.10;;;13.90;99.90;;;;;;5054137;28;20469;-70
2023/12/25 06:00:34;;;;;;;0.00;0.00;;;13.90;99.90;;;;;;5052565;28;20397;-69
2023/12/25 06:02:59;;;;;;;0.10;0.10;;;13.90;99.90;;;;;;5052242;28;20064;-70
2023/12/25 06:05:25;;;;;;;0.10;0.10;;;13.90;99.90;;;;;;5053181;28;20016;-71
2023/12/25 06:07:51;;;;;;;0.10;0.10;;;13.90;99.90;;;;;;5053936;28;20029;-70
2023/12/25 06:10:17;;;;;;;0.63;0.40;;;13.90;99.90;;;;;;5053595;28;20067;-70
2023/12/25 06:12:43;;;;;;;0.22;0.22;;;14.00;99.90;;;;;;5053353;28;20146;-70
2023/12/25 06:15:10;;;;;;;0.25;0.22;;;13.90;99.90;;;;;;5053405;28;20513;-70
2023/12/25 06:17:36;;;;;;;0.57;0.57;;;13.90;99.90;;;;;;5052293;28;20048;-69
2023/12/25 06:20:04;;;;;;;0.90;0.82;;;13.90;99.90;;;;;;5053743;28;20036;-71
2023/12/25 06:22:30;;;;;;;0.50;0.20;;;13.90;99.90;;;;;;5053401;28;20025;-70
2023/12/25 06:24:56;;;;;;;0.00;0.00;;;14.00;99.90;;;;;;5053414;28;20028;-70
2023/12/25 06:27:21;;;;;;;0.20;0.20;;;14.00;99.90;;;;;;5052816;28;20523;-70
2023/12/25 06:29:47;;;;;;;0.45;0.30;;;14.10;99.90;;;;;;5053628;28;20032;-70
2023/12/25 06:32:14;;;;;;;0.10;0.10;;;13.90;99.90;;;;;;5052882;28;20037;-70
2023/12/25 06:34:40;;;;;;;0.10;0.10;;;13.90;99.90;;;;;;5053111;28;20029;-69
2023/12/25 06:37:06;;;;;;;0.10;0.10;;;13.80;99.90;;;;;;5053351;28;20037;-71
2023/12/25 06:39:31;;;;;;;1.02;0.20;;;13.90;99.90;;;;;;5053058;28;20378;-69
2023/12/25 06:41:58;;;;;;;0.03;0.03;;;13.90;99.90;;;;;;5051749;28;20405;-69
2023/12/25 06:44:24;;;;;;;0.90;0.30;;;13.90;99.90;;;;;;5051868;28;20033;-70
2023/12/25 06:46:50;;;;;;;0.08;0.08;;;13.90;99.90;;;;;;5052642;28;20028;-70
2023/12/25 06:49:15;;;;;;;0.30;0.13;;;13.90;99.90;;;;;;5053285;28;20025;-70
2023/12/25 06:51:45;;;;;;;1.05;0.20;;;13.90;99.90;;;;;;5053138;28;20060;-71
2023/12/25 06:54:11;;;;;;;0.10;0.10;;;14.00;99.90;;;;;;5052802;28;20182;-70
2023/12/25 06:56:38;;;;;;;0.10;0.10;;;14.00;99.90;;;;;;5052866;28;20525;-70
2023/12/25 06:59:04;;;;;;;0.10;0.10;;;14.00;99.90;;;;;;5053099;28;20017;-69
2023/12/25 07:01:32;;;;;;;0.00;0.00;;;13.90;99.90;;;;;;5052663;28;20498;-69
2023/12/25 07:03:59;;;;;;;0.17;0.17;;;14.00;99.90;;;;;;5053193;28;20023;-71
2023/12/25 07:06:24;;;;;;;0.05;0.05;;;13.90;99.90;;;;;;5052780;28;20436;-70
2023/12/25 07:08:52;;;;;;;0.20;0.17;;;13.90;99.90;;;;;;5052958;28;20033;-70
2023/12/25 07:11:18;;;;;;;0.10;0.10;;;13.90;99.90;;;;;;5052855;28;20025;-70
2023/12/25 07:13:45;;;;;;;0.60;0.25;;;14.00;99.90;;;;;;5052545;28;20549;-71
2023/12/25 07:16:21;;;;;;;0.30;0.30;;;14.00;99.90;;;;;;5031774;28;20108;-70
2023/12/25 07:18:49;;;;;;;0.00;0.00;;;14.00;99.90;;;;;;5048654;28;20087;-69
2023/12/25 07:21:16;;;;;;;0.00;0.00;;;14.10;99.90;;;;;;5051571;28;20086;-70
2023/12/25 07:23:42;;;;;;;0.20;0.20;;;14.00;99.90;;;;;;5051402;28;20029;-69
2023/12/25 07:26:09;;;;;;;0.20;0.20;;;14.10;99.90;;;;;;5052816;28;20033;-71
2023/12/25 07:28:34;;;;;;;0.00;0.00;;;14.10;99.90;;;;;;5052634;28;20075;-69
2023/12/25 07:31:01;;;;;;;0.08;0.08;;;14.00;99.90;;;;;;5052207;28;20421;-70
2023/12/25 07:33:27;;;;;;;0.22;0.22;;;14.00;99.90;;;;;;5052507;28;20021;-69
2023/12/25 07:35:53;;;;;;;0.00;0.00;;;14.00;99.90;;;;;;5052872;28;20058;-71
2023/12/25 07:38:20;;;;;;;0.00;0.00;;;14.00;99.90;;;;;;5052623;28;20381;-70
2023/12/25 07:40:49;;;;;;;0.10;0.10;;;13.90;99.90;;;;;;5056350;28;20092;-69
2023/12/25 07:43:15;;;;;;;0.20;0.20;;;13.90;99.90;;;;;;5056201;28;20024;-69
2023/12/25 07:45:41;;;;;;;0.03;0.03;;;14.00;99.90;;;;;;5056362;28;20029;-68
2023/12/25 07:48:07;;;;;;;0.00;0.00;;;14.00;99.90;;;;;;5056440;28;20064;-70
2023/12/25 07:50:33;;;;;;;0.00;0.00;;;14.00;99.90;;;;;;5056314;28;20430;-69
2023/12/25 07:52:59;;;;;;;0.10;0.10;;;14.00;99.90;;;;;;5055055;28;20033;-70
2023/12/25 07:55:25;;;;;;;3.03;0.28;;;13.90;99.90;;;;;;5056086;28;20021;-69
2023/12/25 07:57:51;;;;;;;0.30;0.30;;;13.90;99.90;;;;;;5056207;28;20389;-69
2023/12/25 08:00:17;;;;;;;0.20;0.20;;;13.90;99.90;;;;;;5055919;28;20108;-70
2023/12/25 08:02:43;;;;;;;0.10;0.10;;;13.90;99.90;;;;;;5055880;28;20104;-69
2023/12/25 08:05:09;;;;;;;1.13;0.17;;;13.90;99.90;;;;;;5056133;28;20025;-69
2023/12/25 08:07:35;;;;;;;0.17;0.17;;;13.90;99.90;;;;;;5055993;28;20029;-70
2023/12/25 08:10:00;;;;;;;0.32;0.30;;;13.90;99.90;;;;;;5056139;28;20047;-69
2023/12/25 08:12:26;;;;;;;0.05;0.05;;;13.90;99.90;;;;;;5055583;28;20033;-69
2023/12/25 08:14:52;;;;;;;0.30;0.30;;;14.00;99.90;;;;;;5055382;28;20377;-70
2023/12/25 08:17:18;;;;;;;0.00;0.00;;;13.90;99.90;;;;;;5055442;28;20478;-69
2023/12/25 08:19:45;;;;;;;0.20;0.10;;;13.90;99.90;;;;;;5055695;28;20021;-69
2023/12/25 08:22:10;;;;;;;0.10;0.10;;;13.90;99.90;;;;;;5040302;28;20040;-69
2023/12/25 08:24:36;;;;;;;0.03;0.03;;;13.90;99.90;;;;;;5055561;28;20048;-69
2023/12/25 08:27:03;;;;;;;0.10;0.10;;;13.90;99.90;;;;;;5055840;28;20018;-69
2023/12/25 08:29:29;;;;;;;0.30;0.30;;;13.90;99.90;;;;;;5055363;28;20025;-69
2023/12/25 08:31:55;;;;;;;0.20;0.20;;;13.90;99.90;;;;;;5055598;28;20104;-70
2023/12/25 08:34:23;;;;;;;0.10;0.10;;;13.90;99.90;;;;;;5055231;28;20540;-70
2023/12/25 08:36:49;;;;;;;0.25;0.20;;;13.90;99.90;;;;;;5055736;28;20131;-70
2023/12/25 08:39:16;;;;;;;0.10;0.10;;;13.90;99.90;;;;;;5055449;28;20032;-70
2023/12/25 08:41:42;;;;;;;0.10;0.10;;;14.00;99.90;;;;;;5055082;28;20080;-69
2023/12/25 08:44:08;;;;;;;0.10;0.10;;;13.90;99.90;;;;;;5054813;28;20045;-70
2023/12/25 08:46:34;;;;;;;0.10;0.10;;;14.00;99.90;;;;;;5055323;28;20032;-69
2023/12/25 08:49:00;;;;;;;0.10;0.10;;;14.00;99.90;;;;;;5055405;28;20462;-70
2023/12/25 08:51:26;;;;;;;0.10;0.10;;;14.00;99.90;;;;;;5054559;28;20461;-71
2023/12/25 08:53:52;;;;;;;0.30;0.30;;;13.90;99.90;;;;;;5055187;28;20017;-70
2023/12/25 08:56:26;;;;;;;0.10;0.10;;;14.00;99.90;;;;;;5055047;28;20367;-70
2023/12/25 08:58:52;;;;;;;0.10;0.10;;;14.00;99.90;;;;;;5041176;28;20497;-70
2023/12/25 09:01:18;;;;;;;0.00;0.00;;;14.00;99.90;;;;;;5055018;28;20079;-71
2023/12/25 09:03:44;;;;;;;0.20;0.20;;;14.00;99.90;;;;;;5054719;28;20021;-71
2023/12/25 09:06:12;;;;;;;0.10;0.10;;;14.00;99.90;;;;;;5055115;28;20089;-71
2023/12/25 09:08:39;;;;;;;0.40;0.40;;;14.00;99.90;;;;;;5054901;28;20044;-69
2023/12/25 09:11:08;;;;;;;0.55;0.38;;;14.00;99.90;;;;;;5054740;28;20037;-71
2023/12/25 09:13:34;;;;;;;0.10;0.10;;;14.00;99.90;;;;;;5053327;28;20036;-71
2023/12/25 09:16:00;;;;;;;0.38;0.38;;;14.00;99.90;;;;;;5054506;28;20033;-71
2023/12/25 09:18:26;;;;;;;0.15;0.15;;;14.00;99.90;;;;;;5054941;28;20090;-72
2023/12/25 09:20:53;;;;;;;0.28;0.28;;;14.00;99.90;;;;;;5054620;28;20032;-70
2023/12/25 09:23:18;;;;;;;0.20;0.20;;;14.00;99.90;;;;;;5054990;28;20025;-69
2023/12/25 09:25:45;;;;;;;0.15;0.15;;;14.00;99.90;;;;;;5053331;28;20031;-71
2023/12/25 09:28:11;;;;;;;1.90;1.20;;;13.90;99.90;;;;;;5055419;28;20116;-70
2023/12/25 09:30:38;;;;;;;0.57;0.57;;;13.90;99.90;;;;;;5054196;28;20108;-69
2023/12/25 09:33:04;;;;;;;0.85;0.63;;;14.00;99.90;;;;;;5054529;28;20037;-69
2023/12/25 09:35:30;;;;;;;0.17;0.13;;;14.00;99.90;;;;;;5054732;28;20080;-70
2023/12/25 09:37:56;;;;;;;0.20;0.20;;;14.00;99.90;;;;;;5054587;28;20036;-70
2023/12/25 09:40:22;;;;;;;0.20;0.20;;;14.00;99.90;;;;;;5054410;28;20056;-70
2023/12/25 09:42:49;;;;;;;16.95;1.10;;;14.00;99.90;;;;;;5048322;22;20041;-70
2023/12/25 09:45:17;;;;;;;1.77;0.57;;;14.00;99.90;;;;;;5021127;28;20026;-69
2023/12/25 09:47:45;;;;;;;0.30;0.28;;;14.00;99.90;;;;;;5034843;28;20021;-70
2023/12/25 09:50:11;;;;;;;0.38;0.38;;;14.00;99.90;;;;;;5034401;28;20436;-70
2023/12/25 09:52:37;;;;;;;0.20;0.20;;;14.00;99.90;;;;;;5034699;28;20048;-70
2023/12/25 09:55:03;;;;;;;3.63;0.90;;;14.10;99.90;;;;;;5034085;28;20164;-70
2023/12/25 09:57:30;;;;;;;0.20;0.20;;;14.00;99.90;;;;;;5034569;28;20036;-71
2023/12/25 09:59:56;;;;;;;0.63;0.47;;;14.10;99.90;;;;;;5034670;28;20064;-69
2023/12/25 10:02:23;;;;;;;1.00;0.50;;;14.10;99.90;;;;;;5034183;28;20037;-70
2023/12/25 10:04:50;;;;;;;2.63;2.00;;;14.10;99.90;;;;;;5034498;28;20040;-70
2023/12/25 10:07:20;;;;;;;0.32;0.32;;;14.20;99.90;;;;;;5034739;28;20049;-70
2023/12/25 10:09:54;;;;;;;0.63;0.60;;;14.20;99.90;;;;;;5035925;28;20041;-71
2023/12/25 10:12:20;;;;;;;0.20;0.20;;;14.20;99.90;;;;;;5035065;28;20052;-69
2023/12/25 10:14:46;;;;;;;1.65;0.75;;;14.20;99.90;;;;;;5034609;28;20021;-69
2023/12/25 10:17:12;;;;;;;0.20;0.20;;;14.20;99.90;;;;;;5034488;28;20124;-70
2023/12/25 10:19:55;;;;;;;0.50;0.50;;;14.20;99.90;;;;;;5034529;28;20044;-70
2023/12/25 10:22:32;;;;;;;1.15;0.38;;;14.20;99.90;;;;;;5033260;28;20390;-69
2023/12/25 10:25:06;;;;;;;0.77;0.60;;;14.30;99.90;;;;;;5033332;28;20044;-69
2023/12/25 10:27:37;;;;;;;0.40;0.40;;;14.30;99.90;;;;;;5034803;28;20504;-70
2023/12/25 10:30:03;;;;;;;0.52;0.52;;;14.40;99.90;;;;;;5035569;28;20125;-69
2023/12/25 10:32:31;;;;;;;0.00;0.00;;;14.40;99.90;;;;;;5034064;28;20052;-70
2023/12/25 10:35:13;;;;;;;0.95;0.80;;;14.40;99.90;;;;;;5033518;28;20068;-69
2023/12/25 10:37:40;;;;;;;0.75;0.47;;;14.40;99.90;;;;;;5033477;28;20037;-70
2023/12/25 10:40:25;;;;;;;1.27;0.88;;;14.40;99.90;;;;;;5032856;28;20017;-71
2023/12/25 10:42:54;;;;;;;0.88;0.60;;;14.50;99.90;;;;;;5045494;28;20040;-71
2023/12/25 10:45:27;;;;;;;1.08;0.68;;;14.50;99.90;;;;;;5053172;28;20029;-70
2023/12/25 10:47:55;;;;;;;0.88;0.50;;;14.50;99.90;;;;;;5053064;28;20535;-70
2023/12/25 10:50:25;;;;;;;1.60;0.60;;;14.50;99.90;;;;;;5053321;28;20021;-69
2023/12/25 10:52:53;;;;;;;0.30;0.30;;;14.50;99.90;;;;;;5059504;23;20060;-70
2023/12/25 10:55:30;;;;;;;0.68;0.63;;;14.50;99.90;;;;;;5052868;28;20024;-71
2023/12/25 10:57:56;;;;;;;0.28;0.28;;;14.50;99.90;;;;;;5053066;28;20063;-69
2023/12/25 11:00:22;;;;;;;0.20;0.20;;;14.60;99.90;;;;;;5053163;28;20056;-70
2023/12/25 11:02:52;;;;;;;0.22;0.20;;;14.60;99.90;;;;;;5051519;28;20025;-70
2023/12/25 11:05:20;;;;;;;0.63;0.35;;;14.60;99.90;;;;;;5051592;28;20032;-71
2023/12/25 11:07:46;;;;;;;0.10;0.10;;;14.60;99.90;;;;;;5052433;28;20036;-69
2023/12/25 11:10:13;;;;;;;0.05;0.05;;;14.60;99.90;;;;;;5052889;28;20025;-69
2023/12/25 11:12:39;;;;;;;1.27;0.82;;;14.60;99.90;;;;;;5053298;28;20057;-69
2023/12/25 11:15:06;;;;;;;0.47;0.32;;;14.60;99.90;;;;;;5059393;28;20024;-69
2023/12/25 11:17:34;;;;;;;0.60;0.60;;;14.60;99.90;;;;;;5059224;28;20025;-69
2023/12/25 11:20:03;;;;;;;0.85;0.73;;;14.60;99.90;;;;;;5058198;28;20091;-70
2023/12/25 11:22:33;;;;;;;0.80;0.80;;;14.60;99.90;;;;;;5058752;28;20033;-70
2023/12/25 11:25:02;;;;;;;0.85;0.47;;;14.50;99.90;;;;;;5059348;28;20067;-70
2023/12/25 11:27:29;;;;;;;0.55;0.30;;;14.60;99.90;;;;;;5059164;28;20029;-70
2023/12/25 11:30:03;;;;;;;0.45;0.45;;;14.60;99.90;;;;;;5059390;28;20446;-68
2023/12/25 11:32:32;;;;;;;0.25;0.25;;;14.60;99.90;;;;;;5055946;28;20038;-69
2023/12/25 11:34:58;;;;;;;1.52;1.33;;;14.70;99.90;;;;;;5038888;28;20026;-70
2023/12/25 11:37:25;;;;;;;0.90;0.45;;;14.70;99.90;;;;;;5038690;28;20025;-70
2023/12/25 11:39:59;;;;;;;0.10;0.10;;;14.70;99.90;;;;;;5042568;28;20480;-69
2023/12/25 11:42:26;;;;;;;0.30;0.25;;;14.70;99.90;;;;;;5046024;28;20466;-72
2023/12/25 11:45:00;;;;;;;0.65;0.50;;;14.70;99.90;;;;;;5038941;28;20028;-69
2023/12/25 11:47:28;;;;;;;1.88;1.08;;;14.70;99.90;;;;;;5038951;28;20036;-70
2023/12/25 11:49:56;;;;;;;0.35;0.32;;;14.70;99.90;;;;;;5038953;28;20382;-70
2023/12/25 11:52:46;;;;;;;0.47;0.35;;;14.70;99.90;;;;;;5037301;28;20057;-70
2023/12/25 11:55:23;;;;;;;0.32;0.15;;;14.60;99.90;;;;;;5036817;28;20029;-68
2023/12/25 11:57:49;;;;;;;0.50;0.50;;;14.70;99.90;;;;;;5038730;28;20470;-70
2023/12/25 12:00:20;;;;;;;0.38;0.28;;;14.60;99.90;;;;;;5038778;28;20033;-70
2023/12/25 12:02:47;;;;;;;1.30;1.25;;;14.60;99.90;;;;;;5038706;28;20033;-70
2023/12/25 12:05:13;;;;;;;0.15;0.15;;;14.60;99.90;;;;;;5038108;28;20463;-69
2023/12/25 12:07:42;;;;;;;0.75;0.45;;;14.60;99.90;;;;;;5038766;28;20585;-69
2023/12/25 12:10:09;;;;;;;0.45;0.43;;;14.60;99.90;;;;;;5038571;28;20026;-69
2023/12/25 12:12:37;;;;;;;1.05;0.95;;;14.60;99.90;;;;;;5038643;28;20038;-69
2023/12/25 12:15:05;;;;;;;0.38;0.38;;;14.60;99.90;;;;;;5038713;28;20028;-69
2023/12/25 12:17:32;;;;;;;1.25;0.77;;;14.60;99.90;;;;;;5038641;28;20034;-69
2023/12/25 12:19:58;;;;;;;0.82;0.68;;;14.60;99.90;;;;;;5038383;28;20100;-69
2023/12/25 12:22:25;;;;;;;0.20;0.20;;;14.60;99.90;;;;;;5038630;28;20029;-69
2023/12/25 12:24:52;;;;;;;0.43;0.43;;;14.70;99.90;;;;;;5036706;28;20386;-68
2023/12/25 12:27:21;;;;;;;0.45;0.45;;;14.60;99.90;;;;;;5035104;28;20060;-69
2023/12/25 12:29:50;;;;;;;1.00;0.52;;;14.70;99.90;;;;;;5035264;28;20020;-69
2023/12/25 12:32:17;;;;;;;0.05;0.05;;;14.80;99.90;;;;;;5046498;28;20037;-70
2023/12/25 12:34:44;;;;;;;4.53;1.98;;;14.70;99.90;;;;;;5054979;28;20358;-69
2023/12/25 12:37:10;;;;;;;0.30;0.22;;;14.80;99.90;;;;;;5055645;28;20162;-70
2023/12/25 12:39:37;;;;;;;6.03;1.05;;;14.70;99.90;;;;;;5053669;28;20479;-69
2023/12/25 12:42:10;;;;;;;1.02;0.70;;;14.80;99.90;;;;;;5035253;28;20037;-69
2023/12/25 12:44:36;;;;;;;0.10;0.10;;;14.70;99.90;;;;;;5049619;28;20044;-69
2023/12/25 12:47:02;;;;;;;0.45;0.32;;;14.80;99.90;;;;;;5055207;28;20032;-70